createdAt,value
2024-03-03T00:04:47.830Z,2.63
2024-03-03T00:14:56.530Z,2.92
2024-03-03T00:25:05.303Z,2.48
2024-03-03T00:35:14.195Z,2.32
2024-03-03T00:45:22.817Z,2.34
2024-03-03T00:55:31.654Z,2.37
2024-03-03T01:05:40.354Z,2.59
2024-03-03T01:15:49.126Z,2.14
2024-03-03T01:25:57.893Z,1.68
2024-03-03T01:36:06.518Z,0.82
2024-03-03T01:46:16.196Z,0.48
2024-03-03T01:56:24.824Z,0.33
2024-03-03T02:06:33.598Z,0.46
2024-03-03T02:16:42.376Z,0.39
2024-03-03T02:26:51.096Z,0.52
2024-03-03T02:36:59.739Z,0.5
2024-03-03T02:47:08.403Z,0.39
2024-03-03T02:57:17.132Z,0.48
2024-03-03T03:07:26.111Z,0.46
2024-03-03T03:17:34.876Z,0.44
2024-03-03T03:27:43.688Z,0.34
2024-03-03T03:37:52.506Z,0.29
2024-03-03T03:48:01.215Z,0.23
2024-03-03T03:58:09.869Z,0.27
2024-03-03T04:08:18.430Z,0.45
2024-03-03T04:18:27.489Z,0.32
2024-03-03T04:28:34.562Z,0.32
2024-03-03T04:38:43.514Z,0.35
2024-03-03T04:48:52.047Z,0.34
2024-03-03T04:59:01.118Z,0.48
2024-03-03T05:09:09.859Z,0.31
2024-03-03T05:19:18.688Z,0.33
2024-03-03T05:29:27.358Z,0.27
2024-03-03T05:39:35.999Z,0.34
2024-03-03T05:49:44.777Z,0.32
2024-03-03T05:59:53.560Z,0.29
2024-03-03T06:10:02.428Z,0.31
2024-03-03T06:20:11.152Z,0.26
2024-03-03T06:30:20.008Z,0.3
2024-03-03T06:40:28.677Z,0.19
2024-03-03T06:50:37.397Z,0.13
2024-03-03T07:00:47.436Z,0.13
2024-03-03T07:10:56.118Z,0.37
2024-03-03T07:21:04.892Z,0.81
2024-03-03T07:31:13.622Z,0.09
2024-03-03T07:41:22.364Z,0.24
2024-03-03T07:51:31.088Z,0.31
2024-03-03T08:01:39.940Z,0.37
2024-03-03T08:11:48.735Z,0.61
2024-03-03T08:21:57.522Z,0.85
2024-03-03T08:32:06.403Z,1.13
2024-03-03T08:42:14.192Z,0.93
2024-03-03T08:52:23.151Z,0.71
2024-03-03T09:02:31.864Z,1.79
2024-03-03T09:12:40.618Z,0.89
2024-03-03T09:22:49.016Z,0.8
2024-03-03T09:32:58.395Z,1.38
2024-03-03T09:43:07.231Z,2.54
2024-03-03T09:53:16.107Z,2.03
2024-03-03T10:03:24.941Z,1.7
2024-03-03T10:13:34.021Z,1.42
2024-03-03T10:23:42.719Z,0.86
2024-03-03T10:33:51.573Z,1.01
2024-03-03T10:44:00.398Z,1.13
2024-03-03T10:54:09.672Z,1.63
2024-03-03T11:04:18.475Z,1.08
2024-03-03T11:14:27.154Z,1.06
2024-03-03T11:24:36.070Z,0.66
2024-03-03T11:34:44.953Z,1.03
2024-03-03T11:44:53.822Z,1.02
2024-03-03T11:55:03.831Z,0.67
2024-03-03T12:05:12.741Z,0.78
2024-03-03T12:15:22.981Z,0.69
2024-03-03T12:25:21.929Z,1.17
2024-03-03T12:35:30.597Z,1
2024-03-03T12:45:39.432Z,1.41
2024-03-03T12:55:48.484Z,1.34
2024-03-03T13:05:57.210Z,1.58
2024-03-03T13:16:05.608Z,1.86
2024-03-03T13:26:15.024Z,1.61
2024-03-03T13:36:25.159Z,1.05
2024-03-03T13:46:23.867Z,4.04
2024-03-03T13:56:32.597Z,0.85
2024-03-03T14:06:42.583Z,1.24
2024-03-03T14:16:51.408Z,1.11
2024-03-03T14:27:00.308Z,1.3
2024-03-03T14:37:09.372Z,0.89
2024-03-03T14:47:16.656Z,1.31
2024-03-03T14:57:25.685Z,0.73
2024-03-03T15:07:34.534Z,0.77
2024-03-03T15:17:43.296Z,0.6
2024-03-03T15:27:52.203Z,0.34
2024-03-03T15:38:01.144Z,0.54
2024-03-03T15:48:10.074Z,0.41
2024-03-03T15:58:19.382Z,0.61
2024-03-03T16:08:28.030Z,0.39
2024-03-03T16:18:36.724Z,0.47
2024-03-03T16:28:46.473Z,0.53
2024-03-03T16:38:54.663Z,0.4
2024-03-03T16:49:03.420Z,0.54
2024-03-03T16:59:12.170Z,0.51
2024-03-03T17:09:20.847Z,0.51
2024-03-03T17:19:29.948Z,0.51
2024-03-03T17:29:38.989Z,0.64
2024-03-03T17:39:47.692Z,0.56
2024-03-03T17:49:56.522Z,0.5
2024-03-03T18:00:05.279Z,0.54
2024-03-03T18:10:14.039Z,0.98
2024-03-03T18:20:22.822Z,1.03
2024-03-03T18:30:31.633Z,1.39
2024-03-03T18:40:40.460Z,1.76
2024-03-03T18:50:48.240Z,1.13
2024-03-03T19:01:04.232Z,0.91
2024-03-03T19:11:03.102Z,0.82
2024-03-03T19:21:15.919Z,0.88
2024-03-03T19:31:14.831Z,1.48
2024-03-03T19:41:24.058Z,1.82
2024-03-03T19:51:33.466Z,2.33
2024-03-03T20:01:44.375Z,2.37
2024-03-03T20:11:43.557Z,1.19
2024-03-03T20:21:52.316Z,1.41
2024-03-03T20:32:01.614Z,1.44
2024-03-03T20:42:10.473Z,1.61
2024-03-03T20:52:20.917Z,0.77
2024-03-03T21:02:25.846Z,0.62
2024-03-03T21:12:25.123Z,1.24
2024-03-03T21:22:34.580Z,0.95
2024-03-03T21:32:43.655Z,0.83
2024-03-03T21:42:53.105Z,0.55
2024-03-03T21:53:02.008Z,0.79
2024-03-03T22:03:10.959Z,0.83
2024-03-03T22:13:20.695Z,0.51
2024-03-03T22:23:29.704Z,0.37
2024-03-03T22:33:38.820Z,0.53
2024-03-03T22:43:47.873Z,0.51
2024-03-03T22:53:57.202Z,0.69
2024-03-03T23:04:06.041Z,0.36
2024-03-03T23:14:15.330Z,0.49
2024-03-03T23:24:24.302Z,0.32
2024-03-03T23:34:33.271Z,0.48
2024-03-03T23:44:42.250Z,0.38
2024-03-03T23:54:51.075Z,0.35
